createdAt,value
2018-08-18T00:00:18.263Z,4.00
2018-08-18T00:02:46.759Z,3.93
2018-08-18T00:05:15.911Z,4.23
2018-08-18T00:07:44.439Z,3.60
2018-08-18T00:10:15.280Z,4.27
2018-08-18T00:12:43.792Z,3.67
2018-08-18T00:15:12.291Z,3.60
2018-08-18T00:17:40.808Z,4.73
2018-08-18T00:20:11.804Z,3.90
2018-08-18T00:22:40.312Z,3.83
2018-08-18T00:25:08.823Z,3.70
2018-08-18T00:27:37.315Z,3.77
2018-08-18T00:30:12.299Z,3.77
2018-08-18T00:32:40.798Z,3.50
2018-08-18T00:35:09.587Z,4.07
2018-08-18T00:37:38.097Z,4.00
2018-08-18T00:40:08.248Z,3.93
2018-08-18T00:42:37.351Z,4.00
2018-08-18T00:45:07.743Z,3.90
2018-08-18T00:47:36.528Z,4.10
2018-08-18T00:50:05.677Z,3.97
2018-08-18T00:52:34.215Z,4.43
2018-08-18T00:55:03.008Z,3.80
2018-08-18T00:57:32.630Z,3.90
2018-08-18T01:00:01.132Z,3.90
2018-08-18T01:02:29.767Z,4.07
2018-08-18T01:04:59.776Z,3.90
2018-08-18T01:07:29.703Z,3.60
2018-08-18T01:09:58.795Z,4.30
2018-08-18T01:12:27.900Z,3.77
2018-08-18T01:14:56.848Z,4.37
2018-08-18T01:17:25.895Z,3.90
2018-08-18T01:19:56.294Z,3.60
2018-08-18T01:22:24.823Z,3.80
2018-08-18T01:24:53.951Z,3.60
2018-08-18T01:27:22.951Z,3.67
2018-08-18T01:29:56.712Z,4.17
2018-08-18T01:32:25.611Z,3.70
2018-08-18T01:34:54.415Z,4.03
2018-08-18T01:37:22.915Z,3.83
2018-08-18T01:39:54.297Z,4.10
2018-08-18T01:42:23.671Z,3.80
2018-08-18T01:44:52.736Z,3.77
2018-08-18T01:47:21.235Z,3.43
2018-08-18T01:49:49.776Z,3.73
2018-08-18T01:52:24.251Z,4.60
2018-08-18T01:54:52.758Z,3.77
2018-08-18T01:57:22.307Z,3.90
2018-08-18T01:59:51.543Z,4.30
2018-08-18T02:02:22.547Z,4.03
2018-08-18T02:04:51.389Z,3.90
2018-08-18T02:07:31.432Z,4.10
2018-08-18T02:09:59.945Z,4.23
2018-08-18T02:12:28.937Z,3.83
2018-08-18T02:14:59.019Z,3.80
2018-08-18T02:17:29.471Z,3.93
2018-08-18T02:19:58.600Z,3.87
2018-08-18T02:22:27.832Z,3.87
2018-08-18T02:24:56.343Z,4.37
2018-08-18T02:27:25.217Z,4.50
2018-08-18T02:30:05.866Z,4.03
2018-08-18T02:32:37.391Z,4.17
2018-08-18T02:35:06.590Z,3.73
2018-08-18T02:37:35.131Z,3.70
2018-08-18T02:40:04.966Z,4.00
2018-08-18T02:42:33.619Z,3.70
2018-08-18T02:45:02.115Z,3.50
2018-08-18T02:47:30.610Z,3.37
2018-08-18T02:50:00.693Z,3.60
2018-08-18T02:52:33.237Z,3.73
2018-08-18T02:55:04.091Z,4.20
2018-08-18T02:57:39.846Z,4.60
2018-08-18T03:00:12.171Z,3.87
2018-08-18T03:02:40.684Z,3.37
2018-08-18T03:05:09.202Z,3.50
2018-08-18T03:07:43.780Z,3.73
2018-08-18T03:10:17.533Z,3.80
2018-08-18T03:12:46.703Z,3.60
2018-08-18T03:15:59.007Z,3.53
2018-08-18T03:18:36.299Z,3.37
2018-08-18T03:21:05.272Z,3.70
2018-08-18T03:23:34.891Z,3.63
2018-08-18T03:26:03.589Z,3.73
2018-08-18T03:28:37.280Z,3.87
2018-08-18T03:31:06.566Z,4.03
2018-08-18T03:33:35.071Z,3.80
2018-08-18T03:36:14.335Z,3.60
2018-08-18T03:38:42.827Z,3.83
2018-08-18T03:41:11.330Z,3.50
2018-08-18T03:43:39.823Z,3.53
2018-08-18T03:46:08.313Z,3.80
2018-08-18T03:48:36.842Z,3.90
2018-08-18T03:51:05.351Z,3.60
2018-08-18T03:53:33.852Z,3.77
2018-08-18T03:56:02.342Z,3.90
2018-08-18T03:58:40.644Z,3.30
2018-08-18T04:01:09.151Z,3.87
2018-08-18T04:03:37.646Z,4.03
2018-08-18T04:06:06.504Z,3.53
2018-08-18T04:08:35.011Z,3.90
2018-08-18T04:11:03.516Z,3.50
2018-08-18T04:13:32.015Z,3.50
2018-08-18T04:16:00.538Z,3.70
2018-08-18T04:18:29.032Z,3.97
2018-08-18T04:20:57.525Z,3.53
2018-08-18T04:23:26.020Z,3.80
2018-08-18T04:25:54.819Z,3.30
2018-08-18T04:28:23.315Z,4.00
2018-08-18T04:30:51.819Z,3.80
2018-08-18T04:33:20.306Z,4.80
2018-08-18T04:35:53.290Z,4.00
2018-08-18T04:38:21.802Z,3.87
2018-08-18T04:40:50.307Z,3.73
2018-08-18T04:43:19.119Z,3.40
2018-08-18T04:45:47.933Z,3.87
2018-08-18T04:48:27.460Z,3.33
2018-08-18T04:50:56.327Z,3.30
2018-08-18T04:53:24.835Z,3.43
2018-08-18T04:55:53.330Z,3.80
2018-08-18T04:58:21.827Z,3.83
2018-08-18T05:00:50.323Z,3.57
2018-08-18T05:03:18.850Z,3.43
2018-08-18T05:05:47.367Z,3.37
2018-08-18T05:08:15.863Z,3.53
2018-08-18T05:10:44.368Z,3.47
2018-08-18T05:13:13.073Z,3.87
2018-08-18T05:15:41.591Z,3.73
2018-08-18T05:18:10.095Z,3.40
2018-08-18T05:20:38.596Z,3.20
2018-08-18T05:23:20.371Z,3.33
2018-08-18T05:25:51.176Z,3.47
2018-08-18T05:28:19.999Z,3.40
2018-08-18T05:30:53.668Z,3.00
2018-08-18T05:33:22.186Z,3.40
2018-08-18T05:35:50.687Z,3.03
2018-08-18T05:38:19.194Z,3.67
2018-08-18T05:40:47.699Z,3.20
2018-08-18T05:43:16.256Z,3.07
2018-08-18T05:45:44.746Z,3.40
2018-08-18T05:48:13.246Z,3.00
2018-08-18T05:50:42.099Z,3.33
2018-08-18T05:53:21.744Z,3.07
2018-08-18T05:55:50.640Z,3.50
2018-08-18T05:58:19.195Z,3.20
2018-08-18T06:00:48.495Z,2.77
2018-08-18T06:03:18.420Z,3.00
2018-08-18T06:05:47.402Z,3.30
2018-08-18T06:08:15.864Z,3.10
2018-08-18T06:10:44.377Z,3.00
2018-08-18T06:13:17.087Z,3.00
2018-08-18T06:15:59.716Z,3.17
2018-08-18T06:18:28.279Z,2.50
2018-08-18T06:20:56.771Z,2.70
2018-08-18T06:23:25.268Z,2.97
2018-08-18T06:25:53.774Z,3.20
2018-08-18T06:28:22.292Z,2.70
2018-08-18T06:30:50.847Z,2.60
2018-08-18T06:33:19.365Z,2.80
2018-08-18T06:35:47.873Z,2.90
2018-08-18T06:38:16.387Z,2.83
2018-08-18T06:40:49.214Z,3.20
2018-08-18T06:43:17.712Z,3.10
2018-08-18T06:45:46.227Z,3.33
2018-08-18T06:48:20.228Z,2.70
2018-08-18T06:50:48.747Z,3.30
2018-08-18T06:53:17.528Z,3.23
2018-08-18T06:55:46.239Z,2.60
2018-08-18T06:58:14.751Z,2.87
2018-08-18T07:00:43.248Z,2.60
2018-08-18T07:03:22.778Z,2.90
2018-08-18T07:05:51.313Z,2.30
2018-08-18T07:08:19.811Z,2.70
2018-08-18T07:10:48.598Z,2.87
2018-08-18T07:13:17.176Z,2.83
2018-08-18T07:15:46.775Z,2.70
2018-08-18T07:18:16.472Z,2.37
2018-08-18T07:20:45.102Z,2.97
2018-08-18T07:23:13.931Z,2.33
2018-08-18T07:26:15.207Z,3.93
2018-08-18T07:28:43.774Z,2.50
2018-08-18T07:31:12.721Z,3.10
2018-08-18T07:33:41.222Z,2.77
2018-08-18T07:36:09.730Z,2.90
2018-08-18T07:38:38.228Z,3.80
2018-08-18T07:41:06.780Z,3.70
2018-08-18T07:43:35.805Z,9.60
2018-08-18T07:46:07.868Z,8.20
2018-08-18T07:48:36.373Z,8.07
2018-08-18T07:51:04.874Z,7.70
2018-08-18T07:53:33.420Z,8.27
2018-08-18T07:56:01.897Z,6.87
2018-08-18T07:58:30.595Z,7.37
2018-08-18T08:01:00.179Z,6.80
2018-08-18T08:03:28.684Z,6.43
2018-08-18T08:05:57.182Z,6.47
2018-08-18T08:08:28.987Z,5.43
2018-08-18T08:11:01.680Z,5.90
2018-08-18T08:13:30.182Z,5.90
2018-08-18T08:15:58.684Z,6.43
2018-08-18T08:18:27.186Z,5.90
2018-08-18T08:20:55.697Z,5.50
2018-08-18T08:23:24.199Z,5.43
2018-08-18T08:25:52.719Z,5.60
2018-08-18T08:28:21.231Z,5.33
2018-08-18T08:30:49.735Z,5.30
2018-08-18T08:33:36.535Z,5.40
2018-08-18T08:36:11.431Z,5.63
2018-08-18T08:38:53.582Z,5.63
2018-08-18T08:41:25.656Z,6.67
2018-08-18T08:43:54.486Z,5.57
2018-08-18T08:46:23.025Z,5.07
2018-08-18T08:48:53.458Z,4.70
2018-08-18T08:51:21.963Z,5.03
2018-08-18T08:53:50.967Z,5.27
2018-08-18T08:56:24.475Z,4.63
2018-08-18T08:58:53.082Z,4.63
2018-08-18T09:01:22.200Z,4.53
2018-08-18T09:03:50.719Z,4.17
2018-08-18T09:06:19.215Z,4.80
2018-08-18T09:08:54.687Z,6.17
2018-08-18T09:11:23.455Z,5.23
2018-08-18T09:14:00.255Z,4.53
2018-08-18T09:16:30.867Z,5.73
2018-08-18T09:18:59.375Z,4.33
2018-08-18T09:21:29.580Z,4.30
2018-08-18T09:23:58.075Z,4.27
2018-08-18T09:26:26.654Z,3.97
2018-08-18T09:28:55.111Z,4.00
2018-08-18T09:31:23.604Z,4.30
2018-08-18T09:33:52.103Z,4.07
2018-08-18T09:36:20.774Z,4.20
2018-08-18T09:38:49.183Z,3.90
2018-08-18T09:41:17.679Z,4.20
2018-08-18T09:43:46.171Z,3.97
2018-08-18T09:46:14.701Z,3.60
2018-08-18T09:48:43.232Z,3.87
2018-08-18T09:51:11.750Z,3.47
2018-08-18T09:53:40.265Z,4.10
2018-08-18T09:56:08.759Z,3.90
2018-08-18T09:58:37.294Z,3.87
2018-08-18T10:01:05.779Z,3.77
2018-08-18T10:03:34.283Z,4.23
2018-08-18T10:06:02.794Z,3.73
2018-08-18T10:08:31.304Z,4.67
2018-08-18T10:10:59.800Z,3.70
2018-08-18T10:13:28.303Z,3.67
2018-08-18T10:15:56.805Z,4.30
2018-08-18T10:18:25.568Z,3.20
2018-08-18T10:20:54.055Z,3.37
2018-08-18T10:23:22.552Z,3.10
2018-08-18T10:25:51.043Z,4.10
2018-08-18T10:28:20.008Z,3.40
2018-08-18T10:30:48.517Z,3.30
2018-08-18T10:33:17.063Z,3.23
2018-08-18T10:35:45.555Z,3.17
2018-08-18T10:38:14.055Z,3.50
2018-08-18T10:40:42.559Z,3.60
2018-08-18T10:43:11.050Z,3.30
2018-08-18T10:45:39.537Z,3.40
2018-08-18T10:48:08.041Z,3.50
2018-08-18T10:50:49.288Z,3.40
2018-08-18T10:53:17.791Z,2.90
2018-08-18T10:55:46.295Z,3.30
2018-08-18T10:58:24.627Z,3.17
2018-08-18T11:00:53.476Z,3.50
2018-08-18T11:03:21.976Z,3.27
2018-08-18T11:05:50.471Z,3.37
2018-08-18T11:08:18.967Z,4.37
2018-08-18T11:10:47.470Z,2.87
2018-08-18T11:13:15.966Z,3.00
2018-08-18T11:15:44.756Z,3.90
2018-08-18T11:18:13.256Z,3.00
2018-08-18T11:20:41.755Z,3.20
2018-08-18T11:23:11.239Z,3.13
2018-08-18T11:25:50.195Z,3.03
2018-08-18T11:28:19.363Z,3.30
2018-08-18T11:30:49.668Z,2.97
2018-08-18T11:33:34.636Z,3.13
2018-08-18T11:36:03.985Z,3.60
2018-08-18T11:38:33.352Z,2.90
2018-08-18T11:41:02.043Z,3.53
2018-08-18T11:43:34.131Z,3.13
2018-08-18T11:46:02.631Z,3.33
2018-08-18T11:48:31.132Z,3.17
2018-08-18T11:50:59.641Z,2.97
2018-08-18T11:53:28.138Z,3.30
2018-08-18T11:55:56.907Z,2.93
2018-08-18T11:58:25.727Z,3.00
2018-08-18T12:00:56.432Z,3.07
2018-08-18T12:03:27.663Z,3.13
2018-08-18T12:05:58.068Z,2.90
2018-08-18T12:08:29.760Z,2.80
2018-08-18T12:11:00.770Z,3.30
2018-08-18T12:13:34.451Z,3.00
2018-08-18T12:16:16.459Z,3.20
2018-08-18T12:18:46.031Z,3.10
2018-08-18T12:21:15.029Z,3.27
2018-08-18T12:23:46.170Z,2.97
2018-08-18T12:26:19.088Z,3.03
2018-08-18T12:28:48.771Z,3.20
2018-08-18T12:31:21.011Z,3.30
2018-08-18T12:33:49.519Z,3.53
2018-08-18T12:36:18.250Z,3.27
2018-08-18T12:38:48.576Z,2.97
2018-08-18T12:41:17.122Z,3.93
2018-08-18T12:43:48.484Z,3.03
2018-08-18T12:46:18.474Z,3.20
2018-08-18T12:48:48.707Z,3.27
2018-08-18T12:51:18.607Z,3.03
2018-08-18T12:53:47.114Z,2.90
2018-08-18T12:56:17.484Z,3.07
2018-08-18T12:58:46.001Z,2.87
2018-08-18T13:01:21.894Z,3.03
2018-08-18T13:03:50.400Z,3.13
2018-08-18T13:06:18.920Z,3.13
2018-08-18T13:08:47.423Z,3.03
2018-08-18T13:11:15.927Z,3.40
2018-08-18T13:13:44.419Z,3.43
2018-08-18T13:16:12.931Z,3.10
2018-08-18T13:18:41.540Z,3.20
2018-08-18T13:21:09.948Z,2.80
2018-08-18T13:23:38.448Z,3.00
2018-08-18T13:26:06.951Z,3.37
2018-08-18T13:28:35.504Z,3.47
2018-08-18T13:31:04.023Z,2.97
2018-08-18T13:33:36.780Z,3.40
2018-08-18T13:36:05.298Z,3.60
2018-08-18T13:38:33.799Z,3.07
2018-08-18T13:41:02.295Z,3.00
2018-08-18T13:43:42.807Z,3.17
2018-08-18T13:46:12.939Z,2.90
2018-08-18T13:49:16.176Z,3.27
2018-08-18T13:51:44.674Z,3.40
2018-08-18T13:54:13.171Z,3.37
2018-08-18T13:56:41.675Z,3.27
2018-08-18T13:59:10.192Z,3.40
2018-08-18T14:01:44.473Z,3.47
2018-08-18T14:04:21.101Z,3.40
2018-08-18T14:06:55.208Z,3.40
2018-08-18T14:09:24.003Z,3.30
2018-08-18T14:12:00.234Z,2.90
2018-08-18T14:14:29.177Z,3.43
2018-08-18T14:16:57.692Z,3.10
2018-08-18T14:19:26.250Z,3.60
2018-08-18T14:21:58.972Z,3.03
2018-08-18T14:24:33.054Z,3.43
2018-08-18T14:27:03.011Z,3.30
2018-08-18T14:29:32.905Z,3.30
2018-08-18T14:32:02.240Z,3.27
2018-08-18T14:34:30.742Z,3.23
2018-08-18T14:37:03.446Z,3.40
2018-08-18T14:39:40.467Z,3.60
2018-08-18T14:42:09.820Z,3.20
2018-08-18T14:44:39.167Z,3.63
2018-08-18T14:47:07.820Z,3.20
2018-08-18T14:49:36.352Z,3.37
2018-08-18T14:52:04.880Z,3.37
2018-08-18T14:54:33.505Z,3.50
2018-08-18T14:57:02.979Z,3.80
2018-08-18T14:59:33.702Z,3.23
2018-08-18T15:02:04.255Z,3.83
2018-08-18T15:04:33.355Z,3.00
2018-08-18T15:07:01.853Z,2.87
2018-08-18T15:09:42.680Z,3.47
2018-08-18T15:12:11.180Z,3.50
2018-08-18T15:14:39.679Z,3.30
2018-08-18T15:17:08.195Z,3.83
2018-08-18T15:19:36.695Z,3.07
2018-08-18T15:22:06.949Z,2.93
2018-08-18T15:24:35.464Z,3.77
2018-08-18T15:27:04.027Z,4.60
2018-08-18T15:29:32.521Z,3.80
2018-08-18T15:32:01.039Z,3.33
2018-08-18T15:34:29.532Z,3.67
2018-08-18T15:36:58.051Z,3.37
2018-08-18T15:39:28.331Z,3.07
2018-08-18T15:41:58.551Z,3.10
2018-08-18T15:44:27.049Z,3.50
2018-08-18T15:46:55.556Z,3.73
2018-08-18T15:49:24.056Z,3.33
2018-08-18T15:51:52.981Z,3.50
2018-08-18T15:54:23.763Z,3.60
2018-08-18T15:56:52.254Z,2.90
2018-08-18T15:59:20.751Z,4.07
2018-08-18T16:01:49.247Z,3.23
2018-08-18T16:04:17.749Z,3.60
2018-08-18T16:06:46.620Z,3.30
2018-08-18T16:09:15.144Z,3.43
2018-08-18T16:11:43.659Z,3.83
2018-08-18T16:14:12.167Z,3.30
2018-08-18T16:16:56.611Z,3.43
2018-08-18T16:19:25.791Z,3.80
2018-08-18T16:21:54.298Z,3.63
2018-08-18T16:24:32.342Z,3.60
2018-08-18T16:27:03.193Z,3.63
2018-08-18T16:29:32.407Z,3.90
2018-08-18T16:32:14.315Z,3.63
2018-08-18T16:34:44.559Z,3.70
2018-08-18T16:37:13.047Z,3.60
2018-08-18T16:39:42.548Z,3.57
2018-08-18T16:42:12.339Z,3.70
2018-08-18T16:44:41.487Z,3.27
2018-08-18T16:47:10.035Z,3.93
2018-08-18T16:49:38.542Z,3.70
2018-08-18T16:52:07.035Z,3.90
2018-08-18T16:54:35.544Z,3.83
2018-08-18T16:57:04.052Z,3.53
2018-08-18T16:59:36.171Z,3.40
2018-08-18T17:02:05.760Z,3.77
2018-08-18T17:04:35.239Z,3.93
2018-08-18T17:07:09.083Z,3.80
2018-08-18T17:09:41.009Z,3.80
2018-08-18T17:12:21.987Z,3.80
2018-08-18T17:14:50.878Z,4.60
2018-08-18T17:17:19.535Z,3.43
2018-08-18T17:19:48.051Z,3.93
2018-08-18T17:22:16.592Z,3.50
2018-08-18T17:24:45.108Z,3.67
2018-08-18T17:27:13.640Z,3.33
2018-08-18T17:29:43.904Z,4.70
2018-08-18T17:32:12.416Z,4.50
2018-08-18T17:34:40.928Z,4.27
2018-08-18T17:37:09.432Z,3.97
2018-08-18T17:39:38.335Z,3.97
2018-08-18T17:42:07.092Z,4.37
2018-08-18T17:44:35.579Z,3.70
2018-08-18T17:47:05.616Z,5.00
2018-08-18T17:49:41.285Z,4.00
2018-08-18T17:52:09.787Z,3.90
2018-08-18T17:54:39.024Z,4.00
2018-08-18T17:57:08.672Z,3.87
2018-08-18T17:59:38.347Z,3.63
2018-08-18T18:02:09.164Z,4.00
2018-08-18T18:04:37.691Z,4.13
2018-08-18T18:07:07.395Z,4.10
2018-08-18T18:09:35.901Z,4.00
2018-08-18T18:12:28.939Z,4.70
2018-08-18T18:14:57.427Z,4.33
2018-08-18T18:17:26.299Z,4.10
2018-08-18T18:19:57.165Z,4.47
2018-08-18T18:22:32.450Z,4.00
2018-08-18T18:25:00.976Z,4.00
2018-08-18T18:27:29.484Z,4.00
2018-08-18T18:29:57.979Z,4.57
2018-08-18T18:32:26.479Z,4.67
2018-08-18T18:34:55.030Z,4.97
2018-08-18T18:37:23.531Z,4.47
2018-08-18T18:39:57.792Z,4.80
2018-08-18T18:42:26.788Z,4.97
2018-08-18T18:44:56.083Z,5.23
2018-08-18T18:47:24.636Z,5.00
2018-08-18T18:49:53.135Z,4.83
2018-08-18T18:52:21.627Z,4.90
2018-08-18T18:54:50.144Z,5.63
2018-08-18T18:57:18.663Z,4.73
2018-08-18T18:59:53.151Z,5.60
2018-08-18T19:02:25.623Z,4.97
2018-08-18T19:04:54.142Z,5.40
2018-08-18T19:07:22.684Z,5.73
2018-08-18T19:09:55.433Z,5.07
2018-08-18T19:12:23.915Z,6.83
2018-08-18T19:14:52.419Z,5.10
2018-08-18T19:17:20.929Z,5.30
2018-08-18T19:19:50.082Z,5.37
2018-08-18T19:22:18.595Z,5.27
2018-08-18T19:24:47.101Z,5.10
2018-08-18T19:27:15.607Z,5.37
2018-08-18T19:29:44.099Z,5.20
2018-08-18T19:32:12.604Z,5.50
2018-08-18T19:34:41.093Z,5.67
2018-08-18T19:37:10.203Z,6.10
2018-08-18T19:39:39.446Z,6.20
2018-08-18T19:42:16.739Z,5.97
2018-08-18T19:44:47.527Z,5.80
2018-08-18T19:47:22.817Z,6.17
2018-08-18T19:49:51.247Z,6.60
2018-08-18T19:52:23.135Z,6.00
2018-08-18T19:54:52.712Z,5.43
2018-08-18T19:57:27.302Z,6.20
2018-08-18T20:00:01.436Z,5.60
2018-08-18T20:02:44.008Z,5.93
2018-08-18T20:05:12.520Z,5.80
2018-08-18T20:07:41.035Z,5.67
2018-08-18T20:10:09.532Z,5.50
2018-08-18T20:12:38.043Z,5.57
2018-08-18T20:15:06.544Z,6.03
2018-08-18T20:17:35.999Z,5.77
2018-08-18T20:20:04.795Z,5.30
2018-08-18T20:22:33.672Z,6.07
2018-08-18T20:25:03.099Z,5.20
2018-08-18T20:27:32.089Z,6.60
2018-08-18T20:30:00.580Z,5.90
2018-08-18T20:32:29.081Z,5.87
2018-08-18T20:34:57.576Z,5.70
2018-08-18T20:37:26.088Z,6.00
2018-08-18T20:39:54.613Z,5.43
2018-08-18T20:42:29.068Z,5.57
2018-08-18T20:44:59.255Z,5.67
2018-08-18T20:47:31.091Z,5.77
2018-08-18T20:50:00.084Z,5.50
2018-08-18T20:52:29.696Z,5.83
2018-08-18T20:54:59.055Z,5.73
2018-08-18T20:57:27.553Z,5.87
2018-08-18T20:59:56.048Z,5.67
2018-08-18T21:02:24.548Z,5.13
2018-08-18T21:04:59.334Z,6.47
2018-08-18T21:07:29.183Z,6.60
2018-08-18T21:09:57.695Z,5.30
2018-08-18T21:12:57.791Z,6.27
2018-08-18T21:15:26.300Z,5.67
2018-08-18T21:17:55.287Z,5.43
2018-08-18T21:20:23.796Z,5.83
2018-08-18T21:22:52.304Z,6.27
2018-08-18T21:25:20.901Z,5.70
2018-08-18T21:27:49.417Z,6.30
2018-08-18T21:30:18.712Z,5.70
2018-08-18T21:32:47.224Z,6.00
2018-08-18T21:35:16.003Z,5.60
2018-08-18T21:37:44.502Z,6.07
2018-08-18T21:40:13.030Z,6.07
2018-08-18T21:42:41.543Z,5.70
2018-08-18T21:45:11.543Z,5.60
2018-08-18T21:47:40.044Z,5.73
2018-08-18T21:50:08.542Z,5.90
2018-08-18T21:52:37.054Z,5.63
2018-08-18T21:55:05.606Z,6.00
2018-08-18T21:58:04.928Z,5.70
2018-08-18T22:00:38.733Z,5.60
2018-08-18T22:03:07.235Z,5.60
2018-08-18T22:05:35.744Z,5.70
2018-08-18T22:08:04.268Z,5.87
2018-08-18T22:10:32.772Z,5.30
2018-08-18T22:13:01.275Z,5.40
2018-08-18T22:15:32.063Z,5.40
2018-08-18T22:18:00.932Z,6.10
2018-08-18T22:20:29.442Z,5.43
2018-08-18T22:22:57.975Z,5.73
2018-08-18T22:25:26.473Z,5.60
2018-08-18T22:27:54.965Z,5.83
2018-08-18T22:30:26.144Z,5.67
2018-08-18T22:32:54.660Z,5.47
2018-08-18T22:35:23.170Z,5.07
2018-08-18T22:37:51.668Z,5.50
2018-08-18T22:40:20.180Z,5.60
2018-08-18T22:42:48.685Z,5.87
2018-08-18T22:45:25.987Z,6.53
2018-08-18T22:47:54.483Z,5.30
2018-08-18T22:50:22.991Z,5.40
2018-08-18T22:52:52.608Z,5.40
2018-08-18T22:55:21.307Z,5.40
2018-08-18T22:57:55.124Z,5.20
2018-08-18T23:00:24.397Z,5.10
2018-08-18T23:02:53.334Z,5.23
2018-08-18T23:05:22.191Z,5.87
2018-08-18T23:07:53.167Z,5.27
2018-08-18T23:10:22.755Z,5.60
2018-08-18T23:12:51.252Z,5.10
2018-08-18T23:15:19.747Z,5.03
2018-08-18T23:17:48.239Z,5.53
2018-08-18T23:20:16.793Z,5.20
2018-08-18T23:22:53.624Z,5.10
2018-08-18T23:25:23.347Z,5.43
2018-08-18T23:27:52.056Z,4.90
2018-08-18T23:30:38.885Z,5.00
2018-08-18T23:33:08.804Z,5.73
2018-08-18T23:35:37.339Z,5.70
2018-08-18T23:38:05.860Z,5.57
2018-08-18T23:40:34.376Z,9.23
2018-08-18T23:43:02.879Z,5.20
2018-08-18T23:45:37.615Z,5.40
2018-08-18T23:48:09.544Z,6.03
2018-08-18T23:50:39.231Z,4.60
2018-08-18T23:53:10.224Z,5.50
2018-08-18T23:56:00.343Z,5.50
2018-08-18T23:58:29.924Z,5.23
